Time;durP1;ratioP1;P1;durP2;ratioP2;P2;SDS_P1;SDS_P2;PMS_P1;PMS_P2;Temp;Humidity;BMP_temperature;BMP_pressure;BME280_temperature;BME280_humidity;BME280_pressure;Samples;Min_cycle;Max_cycle;Signal;HPM_P1;HPM_P2
2021/09/01 00:02:17;;;;;;;12.65;7.10;;;;;;;12.41;80.06;101063.73;1728927;81;25866;-65
2021/09/01 00:04:43;;;;;;;18.30;7.70;;;;;;;12.39;80.07;101064.28;1710526;82;27399;-65
2021/09/01 00:07:09;;;;;;;18.37;7.67;;;;;;;12.39;80.13;101058.91;1709658;82;25901;-65
2021/09/01 00:09:37;;;;;;;14.58;7.00;;;;;;;12.37;80.18;101066.16;1709519;82;25812;-65
2021/09/01 00:12:06;;;;;;;13.90;7.55;;;;;;;12.35;80.14;101063.55;1724596;82;26580;-64
2021/09/01 00:14:33;;;;;;;17.05;8.60;;;;;;;12.33;80.28;101061.39;1711328;82;25756;-64
2021/09/01 00:17:00;;;;;;;12.33;7.90;;;;;;;12.32;80.34;101068.18;1687148;83;27389;-64
2021/09/01 00:19:27;;;;;;;16.55;8.33;;;;;;;12.31;80.37;101064.61;1734612;82;25777;-64
2021/09/01 00:21:54;;;;;;;14.75;6.87;;;;;;;12.30;80.36;101063.34;1725976;82;25805;-64
2021/09/01 00:24:20;;;;;;;14.85;7.50;;;;;;;12.29;80.39;101066.50;1715236;82;26540;-64
2021/09/01 00:26:47;;;;;;;16.20;7.33;;;;;;;12.26;80.47;101066.63;1737589;82;25777;-64
2021/09/01 00:29:12;;;;;;;12.25;7.10;;;;;;;12.24;80.56;101061.80;1713571;82;27405;-64
2021/09/01 00:31:40;;;;;;;16.85;8.20;;;;;;;12.22;80.64;101065.48;1710844;82;25829;-65
2021/09/01 00:34:05;;;;;;;16.60;7.50;;;;;;;12.20;80.71;101069.59;1731938;82;26462;-64
2021/09/01 00:36:32;;;;;;;15.58;7.55;;;;;;;12.20;80.88;101072.27;1730550;81;25833;-64
2021/09/01 00:39:01;;;;;;;11.93;6.55;;;;;;;12.20;80.91;101075.43;1727133;82;25865;-64
2021/09/01 00:41:29;;;;;;;15.30;7.33;;;;;;;12.18;81.06;101073.28;1718821;81;27474;-65
2021/09/01 00:44:18;;;;;;;13.55;7.45;;;;;;;12.18;81.29;101077.31;1728179;81;26533;-64
2021/09/01 00:46:46;;;;;;;13.55;7.10;;;;;;;12.17;81.20;101075.09;1723781;81;25707;-63
2021/09/01 00:49:14;;;;;;;16.45;7.15;;;;;;;12.17;81.40;101084.97;1710383;81;25794;-65
2021/09/01 00:51:50;;;;;;;22.62;7.60;;;;;;;12.17;81.39;101068.84;1733746;82;25860;-65
2021/09/01 00:54:24;;;;;;;16.60;7.10;;;;;;;12.17;81.48;101076.91;1728375;81;27386;-64
2021/09/01 00:56:55;;;;;;;23.12;7.25;;;;;;;12.18;81.50;101084.03;1723417;82;25859;-64
2021/09/01 00:59:24;;;;;;;14.30;7.00;;;;;;;12.18;81.48;101081.34;1721982;81;25903;-64
2021/09/01 01:01:54;;;;;;;14.15;7.17;;;;;;;12.16;81.47;101080.06;1725491;81;25819;-65
2021/09/01 01:04:21;;;;;;;16.85;7.35;;;;;;;12.15;81.52;101078.31;1736234;80;26274;-65
2021/09/01 01:06:48;;;;;;;10.58;6.40;;;;;;;12.15;81.67;101070.72;1749840;80;27349;-65
2021/09/01 01:09:13;;;;;;;16.27;7.50;;;;;;;12.16;81.90;101077.37;1738337;80;25797;-65
2021/09/01 01:12:08;;;;;;;16.17;7.22;;;;;;;12.15;81.79;101085.50;1724656;80;25840;-65
2021/09/01 01:14:41;;;;;;;14.18;6.20;;;;;;;12.14;81.79;101079.25;1702497;82;27781;-64
2021/09/01 01:17:10;;;;;;;16.00;7.53;;;;;;;12.13;81.91;101078.85;1714446;82;25755;-64
2021/09/01 01:19:41;;;;;;;13.98;6.45;;;;;;;12.12;81.97;101081.13;1706720;82;28124;-64
2021/09/01 01:22:08;;;;;;;;;;;;;;;12.13;82.00;101081.53;1726341;81;25847;-64
2021/09/01 01:24:58;;;;;;;12.23;6.42;;;;;;;12.07;82.03;101072.86;1750459;81;25664;-65
2021/09/01 01:27:35;;;;;;;18.98;6.20;;;;;;;12.16;82.18;101079.19;1690651;83;25854;-63
2021/09/01 01:30:11;;;;;;;12.37;6.62;;;;;;;12.16;82.12;101081.41;1738835;80;26314;-64
2021/09/01 01:32:40;;;;;;;13.65;5.72;;;;;;;12.15;82.19;101081.00;1697965;81;27471;-64
2021/09/01 01:35:09;;;;;;;16.97;6.40;;;;;;;12.18;82.39;101085.38;1744578;81;25830;-63
2021/09/01 01:37:35;;;;;;;15.28;6.58;;;;;;;12.18;82.32;101084.03;1735879;80;25857;-63
2021/09/01 01:40:03;;;;;;;12.53;6.58;;;;;;;12.17;82.36;101084.97;1735368;81;25856;-64
2021/09/01 01:42:29;;;;;;;12.37;6.22;;;;;;;12.17;82.49;101087.19;1723923;80;25937;-65
2021/09/01 01:44:55;;;;;;;10.30;6.20;;;;;;;12.15;82.43;101082.34;1712480;81;27408;-64
2021/09/01 01:47:21;;;;;;;14.58;6.33;;;;;;;12.14;82.39;101086.44;1722738;80;25841;-64
2021/09/01 01:49:47;;;;;;;16.62;6.33;;;;;;;12.14;82.43;101091.81;1737562;80;25822;-64
2021/09/01 01:52:12;;;;;;;15.20;6.30;;;;;;;12.14;82.47;101089.12;1695421;83;26118;-65
2021/09/01 01:54:38;;;;;;;15.85;7.17;;;;;;;12.12;82.48;101095.91;1707415;82;26534;-65
2021/09/01 01:57:09;;;;;;;11.45;6.05;;;;;;;12.13;82.56;101090.94;1707810;82;27518;-65
2021/09/01 01:59:32;;;;;;;11.05;5.22;;;;;;;12.14;82.54;101095.84;1708758;82;25692;-64
2021/09/01 02:01:58;;;;;;;16.42;6.60;;;;;;;12.15;82.59;101094.91;1716922;82;25876;-65
2021/09/01 02:04:24;;;;;;;13.95;6.00;;;;;;;12.15;82.59;101097.13;1708584;82;25805;-65
2021/09/01 02:06:53;;;;;;;13.10;6.30;;;;;;;12.15;82.53;101098.94;1728110;81;25830;-65
2021/09/01 02:09:22;;;;;;;12.37;6.00;;;;;;;12.15;82.57;101107.87;1685874;82;27842;-65
2021/09/01 02:11:47;;;;;;;11.18;6.17;;;;;;;12.17;82.56;101104.66;1737268;80;25777;-64
2021/09/01 02:14:13;;;;;;;9.90;6.08;;;;;;;12.17;82.63;101110.50;1744965;80;25777;-65
2021/09/01 02:16:39;;;;;;;14.33;6.17;;;;;;;12.19;82.77;101120.24;1749516;80;25820;-65
2021/09/01 02:19:05;;;;;;;13.65;6.20;;;;;;;12.21;82.77;101113.45;1737064;80;25755;-65
2021/09/01 02:21:31;;;;;;;14.45;5.78;;;;;;;12.23;82.83;101115.61;1721851;81;26702;-65
2021/09/01 02:23:57;;;;;;;12.05;5.85;;;;;;;12.22;82.89;101113.39;1744382;81;27162;-64
2021/09/01 02:26:23;;;;;;;13.25;6.10;;;;;;;12.22;82.99;101117.89;1709503;82;25745;-65
2021/09/01 02:28:48;;;;;;;12.45;6.25;;;;;;;12.22;83.04;101120.58;1708920;82;25738;-65
2021/09/01 02:31:14;;;;;;;14.45;5.87;;;;;;;12.20;82.99;101120.64;1722230;81;25860;-64
2021/09/01 02:33:42;;;;;;;12.60;5.85;;;;;;;12.20;82.97;101121.12;1726076;80;27415;-64
2021/09/01 02:36:08;;;;;;;13.13;6.10;;;;;;;12.18;83.08;101118.49;1721496;81;25766;-64
2021/09/01 02:38:34;;;;;;;10.90;6.20;;;;;;;12.17;83.10;101122.13;1725776;81;26497;-64
2021/09/01 02:40:59;;;;;;;13.25;5.97;;;;;;;12.17;83.08;101117.22;1724046;82;25844;-65
2021/09/01 02:43:25;;;;;;;13.70;6.08;;;;;;;12.16;83.16;101115.47;1738841;80;25813;-65
2021/09/01 02:45:51;;;;;;;12.18;5.97;;;;;;;12.13;83.19;101121.84;1745440;80;29418;-64
2021/09/01 02:48:17;;;;;;;16.17;6.67;;;;;;;12.13;83.17;101124.53;1728224;80;27247;-64
2021/09/01 02:50:43;;;;;;;13.05;6.35;;;;;;;12.13;83.19;101119.16;1722683;80;25799;-65
2021/09/01 02:53:09;;;;;;;10.75;5.90;;;;;;;12.10;83.20;101126.00;1732764;81;26092;-64
2021/09/01 02:55:34;;;;;;;20.25;6.10;;;;;;;12.11;83.27;101125.53;1740550;80;25916;-64
2021/09/01 02:58:00;;;;;;;10.35;6.50;;;;;;;12.07;83.24;101135.54;1750749;80;27409;-65
2021/09/01 03:00:26;;;;;;;12.85;6.65;;;;;;;12.06;83.27;101127.54;1739585;80;25714;-64
2021/09/01 03:02:52;;;;;;;15.10;6.53;;;;;;;12.05;83.26;101130.70;1750059;80;25810;-64
2021/09/01 03:05:18;;;;;;;12.88;6.10;;;;;;;12.05;83.29;101128.48;1736055;80;25777;-64
2021/09/01 03:07:44;;;;;;;16.15;6.25;;;;;;;12.02;83.44;101133.05;1745439;80;25776;-64
2021/09/01 03:10:10;;;;;;;14.63;6.97;;;;;;;12.02;83.77;101132.17;1743803;80;27748;-64
2021/09/01 03:12:36;;;;;;;9.85;5.72;;;;;;;12.00;83.75;101132.70;1743190;80;25789;-64
2021/09/01 03:15:03;;;;;;;12.03;5.90;;;;;;;11.98;84.03;101140.83;1742803;80;25742;-65
2021/09/01 03:17:28;;;;;;;10.45;6.15;;;;;;;11.95;84.11;101142.29;1738386;79;25954;-65
2021/09/01 03:19:54;;;;;;;12.43;6.42;;;;;;;11.92;84.15;101138.39;1751986;79;25743;-64
2021/09/01 03:22:20;;;;;;;13.40;6.67;;;;;;;11.90;84.17;101137.58;1746791;80;27414;-64
2021/09/01 03:24:46;;;;;;;14.43;5.65;;;;;;;11.88;84.15;101138.58;1748048;80;25803;-65
2021/09/01 03:27:12;;;;;;;13.68;6.90;;;;;;;11.86;84.27;101145.36;1694258;82;25924;-65
2021/09/01 03:29:37;;;;;;;14.40;6.97;;;;;;;11.86;84.37;101153.88;1756941;80;26099;-65
2021/09/01 03:32:05;;;;;;;15.20;6.62;;;;;;;11.83;84.46;101146.82;1748496;80;25778;-64
2021/09/01 03:34:31;;;;;;;18.10;6.28;;;;;;;11.82;84.41;101143.73;1742157;80;28166;-64
2021/09/01 03:36:56;;;;;;;13.88;6.78;;;;;;;11.82;84.46;101152.26;1724092;80;25875;-64
2021/09/01 03:39:22;;;;;;;11.85;6.40;;;;;;;11.79;84.46;101156.41;1724363;80;25917;-64
2021/09/01 03:41:48;;;;;;;12.75;6.50;;;;;;;11.78;84.46;101153.31;1724243;81;25797;-64
2021/09/01 03:44:14;;;;;;;10.82;5.87;;;;;;;11.77;84.51;101154.22;1728942;81;25782;-64
2021/09/01 03:46:40;;;;;;;13.55;7.10;;;;;;;11.73;84.53;101154.81;1722721;81;29574;-65
2021/09/01 03:49:06;;;;;;;19.20;7.20;;;;;;;11.70;84.49;101166.55;1727283;80;26304;-65
2021/09/01 03:51:32;;;;;;;13.90;7.03;;;;;;;11.71;84.52;101159.36;1724887;80;25779;-64
2021/09/01 03:53:58;;;;;;;17.37;7.22;;;;;;;11.69;84.56;101160.77;1731686;81;25811;-65
2021/09/01 03:56:26;;;;;;;13.45;7.00;;;;;;;11.69;84.60;101162.58;1725366;81;25726;-64
2021/09/01 03:58:51;;;;;;;13.15;6.25;;;;;;;11.68;84.67;101159.48;1723865;81;27365;-68
2021/09/01 04:01:17;;;;;;;12.10;6.78;;;;;;;11.68;84.84;101164.86;1726535;81;26393;-65
2021/09/01 04:03:43;;;;;;;15.23;7.17;;;;;;;11.66;84.77;101167.61;1736357;81;25769;-64
2021/09/01 04:06:09;;;;;;;16.75;8.05;;;;;;;11.67;84.79;101168.48;1694286;82;25810;-64
2021/09/01 04:08:37;;;;;;;14.50;8.03;;;;;;;11.65;84.71;101169.01;1708059;82;25762;-64
2021/09/01 04:11:02;;;;;;;20.60;7.62;;;;;;;11.64;84.77;101173.50;1709690;82;27395;-65
2021/09/01 04:13:28;;;;;;;17.85;7.12;;;;;;;11.62;84.82;101169.13;1705996;82;25818;-64
2021/09/01 04:15:54;;;;;;;13.55;6.50;;;;;;;11.61;84.82;101174.97;1709626;81;25802;-64
2021/09/01 04:18:20;;;;;;;15.45;7.22;;;;;;;11.59;84.79;101187.57;1706611;82;25779;-64
2021/09/01 04:20:46;;;;;;;14.68;6.83;;;;;;;11.59;84.85;101189.38;1708112;82;26196;-64
2021/09/01 04:23:11;;;;;;;14.68;7.12;;;;;;;11.58;84.85;101191.66;1707365;82;27489;-64
2021/09/01 04:25:37;;;;;;;21.17;7.92;;;;;;;11.56;84.91;101193.53;1706132;81;25831;-64
2021/09/01 04:28:04;;;;;;;12.60;6.42;;;;;;;11.55;84.93;101198.02;1712788;82;25802;-65
2021/09/01 04:30:29;;;;;;;16.77;7.78;;;;;;;11.55;85.00;101195.80;1707693;82;25776;-64
2021/09/01 04:32:56;;;;;;;16.48;8.05;;;;;;;11.53;84.97;101203.05;1709635;82;26666;-64
2021/09/01 04:35:22;;;;;;;17.32;8.08;;;;;;;11.52;85.09;101199.48;1727824;82;27451;-63
2021/09/01 04:37:47;;;;;;;13.48;7.97;;;;;;;11.52;85.12;101197.27;1711341;81;25801;-64
2021/09/01 04:40:13;;;;;;;23.80;8.13;;;;;;;11.52;85.11;101203.98;1705661;82;26372;-62
2021/09/01 04:42:39;;;;;;;16.85;7.42;;;;;;;11.53;85.09;101211.09;1727944;81;25838;-62
2021/09/01 04:45:06;;;;;;;22.32;8.23;;;;;;;11.55;85.10;101211.91;1726024;81;25549;-63
2021/09/01 04:47:32;;;;;;;16.30;8.33;;;;;;;11.50;85.15;101203.16;1704385;82;27511;-63
2021/09/01 04:49:57;;;;;;;15.00;8.10;;;;;;;11.52;85.17;101206.20;1753151;80;26242;-62
2021/09/01 04:52:23;;;;;;;16.60;7.80;;;;;;;11.51;85.17;101205.78;1757550;80;25857;-63
2021/09/01 04:54:49;;;;;;;15.18;7.00;;;;;;;11.52;85.18;101218.28;1760417;80;26459;-63
2021/09/01 04:57:15;;;;;;;18.37;8.10;;;;;;;11.54;85.26;101219.56;1754394;80;25809;-64
2021/09/01 04:59:41;;;;;;;17.07;7.65;;;;;;;11.53;85.24;101217.34;1748699;80;27394;-63
2021/09/01 05:02:08;;;;;;;13.53;8.15;;;;;;;11.54;85.28;101225.80;1744161;80;25820;-63
2021/09/01 05:04:34;;;;;;;18.07;8.00;;;;;;;11.53;85.29;101233.92;1737932;80;25825;-63
2021/09/01 05:07:00;;;;;;;21.90;8.85;;;;;;;11.52;85.32;101239.75;1727717;80;27882;-63
2021/09/01 05:09:26;;;;;;;14.13;8.00;;;;;;;11.51;85.35;101236.66;1734154;80;25779;-63
2021/09/01 05:11:52;;;;;;;17.30;8.08;;;;;;;11.55;85.31;101240.98;1740353;80;27468;-63
2021/09/01 05:14:18;;;;;;;22.15;9.28;;;;;;;11.57;85.34;101239.58;1723965;81;25825;-62
2021/09/01 05:16:44;;;;;;;15.10;8.90;;;;;;;11.60;85.34;101251.08;1724977;81;26186;-64
2021/09/01 05:19:11;;;;;;;15.48;8.30;;;;;;;11.64;85.36;101251.38;1731015;81;26338;-64
2021/09/01 05:21:48;;;;;;;24.98;8.30;;;;;;;11.65;85.34;101245.53;1724287;81;25798;-64
2021/09/01 05:24:22;;;;;;;14.63;9.25;;;;;;;11.65;85.37;101246.41;1731644;81;28237;-64
2021/09/01 05:26:49;;;;;;;15.98;7.72;;;;;;;11.67;85.45;101255.28;1679124;82;26324;-67
2021/09/01 05:29:18;;;;;;;15.58;8.85;;;;;;;11.68;85.50;101261.06;1730160;80;25979;-65
2021/09/01 05:31:46;;;;;;;20.43;9.13;;;;;;;11.69;85.50;101262.81;1699442;82;25852;-66
2021/09/01 05:34:13;;;;;;;14.47;8.23;;;;;;;11.73;85.50;101266.72;1733567;81;25758;-66
2021/09/01 05:36:39;;;;;;;15.60;8.25;;;;;;;11.74;85.51;101255.92;1730624;81;27444;-66
2021/09/01 05:39:06;;;;;;;12.68;7.28;;;;;;;11.77;85.50;101265.67;1725631;81;25828;-65
2021/09/01 05:41:32;;;;;;;21.33;8.38;;;;;;;11.81;85.56;101256.59;1731867;80;26426;-65
2021/09/01 05:43:58;;;;;;;20.02;9.15;;;;;;;11.84;85.58;101262.73;1730757;80;25929;-64
2021/09/01 05:46:24;;;;;;;18.07;8.23;;;;;;;11.86;85.55;101256.83;1698492;81;26541;-66
2021/09/01 05:48:53;;;;;;;20.57;8.28;;;;;;;11.90;85.56;101259.80;1699391;82;27012;-65
2021/09/01 05:51:19;;;;;;;21.05;8.80;;;;;;;11.95;85.57;101257.81;1725760;81;25954;-65
2021/09/01 05:53:45;;;;;;;16.97;7.53;;;;;;;11.98;85.58;101260.37;1724538;81;26244;-64
2021/09/01 05:56:17;;;;;;;14.75;7.72;;;;;;;12.02;85.64;101269.20;1698576;82;25809;-64
2021/09/01 05:58:45;;;;;;;13.48;7.50;;;;;;;12.07;85.63;101260.48;1736013;81;25818;-64
2021/09/01 06:01:14;;;;;;;14.05;7.53;;;;;;;12.12;85.64;101257.61;1729145;81;29599;-64
2021/09/01 06:03:44;;;;;;;15.68;8.33;;;;;;;12.16;85.64;101264.61;1691591;82;27252;-65
2021/09/01 06:06:14;;;;;;;19.87;7.97;;;;;;;12.21;85.79;101261.28;1724352;80;25818;-65
2021/09/01 06:08:40;;;;;;;19.25;7.83;;;;;;;12.25;85.79;101261.56;1720976;81;25812;-65
2021/09/01 06:11:08;;;;;;;24.35;8.15;;;;;;;12.31;85.77;101255.94;1713206;81;25765;-64
2021/09/01 06:13:34;;;;;;;13.80;7.42;;;;;;;12.36;85.73;101255.28;1699831;82;27319;-66
2021/09/01 06:16:00;;;;;;;23.32;7.72;;;;;;;12.39;85.71;101247.09;1718013;82;25687;-65
2021/09/01 06:18:26;;;;;;;15.80;6.90;;;;;;;12.46;85.69;101253.09;1716222;82;25803;-65
2021/09/01 06:20:54;;;;;;;14.18;6.78;;;;;;;12.51;85.70;101258.68;1682747;82;25772;-65
2021/09/01 06:23:21;;;;;;;15.00;7.03;;;;;;;12.56;85.71;101263.40;1701872;82;25701;-64
2021/09/01 06:25:47;;;;;;;14.25;6.37;;;;;;;12.62;85.68;101262.27;1712313;82;27474;-64
2021/09/01 06:28:14;;;;;;;12.43;6.65;;;;;;;12.69;85.71;101270.48;1709281;82;25882;-64
2021/09/01 06:30:40;;;;;;;18.87;8.10;;;;;;;12.76;85.71;101271.09;1709534;82;25814;-64
2021/09/01 06:33:07;;;;;;;18.20;7.17;;;;;;;12.82;85.72;101274.88;1705577;82;25819;-63
2021/09/01 06:35:33;;;;;;;10.00;5.78;;;;;;;12.88;85.72;101276.83;1709410;82;25276;-64
2021/09/01 06:38:01;;;;;;;21.77;7.03;;;;;;;12.95;85.63;101270.72;1707024;82;29575;-64
2021/09/01 06:40:27;;;;;;;14.58;7.08;;;;;;;12.99;85.56;101271.86;1733520;81;25825;-63
2021/09/01 06:42:53;;;;;;;14.28;6.55;;;;;;;13.07;85.60;101273.31;1714305;80;26303;-65
2021/09/01 06:45:19;;;;;;;17.67;6.60;;;;;;;13.13;85.54;101274.39;1701540;82;25853;-64
2021/09/01 06:47:50;;;;;;;14.05;6.40;;;;;;;13.19;85.56;101268.77;1733442;81;25857;-64
2021/09/01 06:50:18;;;;;;;;;;;;;;;13.27;85.55;101274.22;1691466;83;27402;-64
2021/09/01 06:52:46;;;;;;;15.08;6.45;;;;;;;13.35;85.48;101277.05;1710372;82;26377;-64
2021/09/01 06:55:14;;;;;;;11.68;6.67;;;;;;;13.40;85.45;101269.16;1709372;81;25693;-65
2021/09/01 06:57:41;;;;;;;12.63;5.90;;;;;;;13.48;85.41;101273.73;1709626;82;25817;-64
2021/09/01 07:00:10;;;;;;;14.98;6.72;;;;;;;13.56;85.43;101268.87;1727230;82;25939;-64
2021/09/01 07:02:36;;;;;;;15.65;6.08;;;;;;;13.67;85.38;101272.41;1714972;81;27491;-66
2021/09/01 07:05:03;;;;;;;15.23;6.20;;;;;;;13.77;85.38;101273.73;1715095;80;25883;-65
2021/09/01 07:07:29;;;;;;;15.70;6.92;;;;;;;13.84;85.31;101274.33;1739071;80;25945;-65
2021/09/01 07:09:55;;;;;;;12.43;5.53;;;;;;;13.92;85.27;101275.72;1706484;81;25856;-65
2021/09/01 07:12:27;;;;;;;15.88;5.62;;;;;;;14.00;85.13;101277.17;1715134;81;25812;-65
2021/09/01 07:14:53;;;;;;;15.85;4.97;;;;;;;14.09;85.04;101280.78;1758764;80;29657;-67
2021/09/01 07:17:19;;;;;;;17.57;5.85;;;;;;;14.21;84.98;101283.77;1694622;83;26003;-66
2021/09/01 07:19:44;;;;;;;15.50;5.00;;;;;;;14.32;84.82;101281.89;1726591;81;26063;-66
2021/09/01 07:22:11;;;;;;;10.25;4.83;;;;;;;14.38;84.65;101287.47;1716842;81;25897;-66
2021/09/01 07:24:37;;;;;;;12.43;5.78;;;;;;;14.44;84.50;101297.98;1722496;81;25848;-68
2021/09/01 07:27:03;;;;;;;13.35;5.50;;;;;;;14.50;84.38;101288.25;1696255;83;28019;-66
2021/09/01 07:29:29;;;;;;;14.95;5.62;;;;;;;14.55;84.22;101282.15;1730915;81;26442;-67
2021/09/01 07:31:55;;;;;;;15.78;5.50;;;;;;;14.70;84.23;101287.25;1742215;80;26307;-64
2021/09/01 07:34:23;;;;;;;10.58;5.47;;;;;;;14.84;84.13;101291.48;1747284;80;26492;-65
2021/09/01 07:36:50;;;;;;;14.20;5.87;;;;;;;14.93;83.98;101297.28;1746984;80;25823;-65
2021/09/01 07:39:17;;;;;;;12.55;5.28;;;;;;;15.04;83.96;101287.77;1743888;80;27496;-65
2021/09/01 07:41:43;;;;;;;11.70;4.75;;;;;;;15.22;83.77;101294.43;1755053;80;26233;-65
2021/09/01 07:44:09;;;;;;;12.10;4.80;;;;;;;15.32;83.58;101297.52;1746810;80;25750;-65
2021/09/01 07:46:35;;;;;;;7.62;4.12;;;;;;;15.40;83.41;101299.82;1717740;81;25761;-64
2021/09/01 07:49:01;;;;;;;7.67;4.17;;;;;;;15.47;83.20;101301.24;1718160;81;25351;-65
2021/09/01 07:51:28;;;;;;;8.78;4.40;;;;;;;15.57;83.13;101310.64;1684985;83;29560;-65
2021/09/01 07:53:54;;;;;;;11.60;4.70;;;;;;;15.62;82.95;101306.30;1743344;80;26622;-65
2021/09/01 07:56:20;;;;;;;9.58;4.33;;;;;;;15.68;82.84;101309.55;1706008;83;25826;-64
2021/09/01 07:58:46;;;;;;;9.53;4.37;;;;;;;15.71;82.60;101313.92;1747571;80;25703;-64
2021/09/01 08:01:12;;;;;;;8.75;4.55;;;;;;;15.66;81.98;101315.52;1700357;82;25836;-66
2021/09/01 08:03:37;;;;;;;8.45;4.50;;;;;;;15.63;81.84;101317.52;1760122;80;27912;-66
2021/09/01 08:06:04;;;;;;;8.23;4.33;;;;;;;15.63;81.61;101321.09;1688583;83;26059;-65
2021/09/01 08:08:52;;;;;;;22.77;4.37;;;;;;;15.61;80.73;101317.59;1708394;82;26509;-66
2021/09/01 08:11:18;;;;;;;10.60;4.28;;;;;;;15.67;80.74;101319.09;1809980;77;25726;-67
2021/09/01 08:13:44;;;;;;;12.60;4.87;;;;;;;15.87;80.87;101322.46;1808743;77;25708;-66
2021/09/01 08:16:09;;;;;;;12.65;5.00;;;;;;;16.03;80.82;101322.97;1790493;78;27476;-68
2021/09/01 08:18:35;;;;;;;8.80;3.65;;;;;;;16.13;80.49;101321.51;1760982;79;25979;-65
2021/09/01 08:21:01;;;;;;;8.40;3.50;;;;;;;16.13;79.47;101323.73;1784809;78;26480;-66
2021/09/01 08:23:27;;;;;;;7.28;3.10;;;;;;;16.13;79.32;101318.33;1793298;77;26239;-66
2021/09/01 08:25:53;;;;;;;7.75;3.12;;;;;;;16.23;79.19;101313.27;1767736;78;25782;-64
2021/09/01 08:28:19;;;;;;;11.15;3.50;;;;;;;16.32;78.92;101310.05;1821447;76;27414;-64
2021/09/01 08:30:44;;;;;;;6.72;3.52;;;;;;;16.35;78.21;101315.77;1811412;76;25754;-64
2021/09/01 08:33:10;;;;;;;9.45;3.47;;;;;;;16.36;77.78;101322.44;1817684;76;25842;-64
2021/09/01 08:35:36;;;;;;;7.10;3.60;;;;;;;16.35;77.03;101326.11;1812079;76;25793;-65
2021/09/01 08:38:03;;;;;;;15.90;4.35;;;;;;;16.39;76.63;101316.86;1783831;78;25787;-65
2021/09/01 08:40:30;;;;;;;7.90;4.28;;;;;;;16.44;76.77;101331.00;1789174;77;27480;-65
2021/09/01 08:42:57;;;;;;;22.22;3.70;;;;;;;16.49;75.72;101319.44;1790837;78;25949;-65
2021/09/01 08:45:23;;;;;;;7.42;3.50;;;;;;;16.60;75.95;101317.94;1781104;78;25691;-65
2021/09/01 08:47:51;;;;;;;8.63;3.77;;;;;;;16.68;75.47;101336.00;1763872;79;26312;-66
2021/09/01 08:50:16;;;;;;;6.10;3.12;;;;;;;16.70;74.63;101330.89;1780890;78;25936;-65
2021/09/01 08:52:42;;;;;;;5.28;3.17;;;;;;;16.69;74.35;101339.98;1786814;78;28035;-65
2021/09/01 08:55:12;;;;;;;10.98;3.92;;;;;;;16.61;72.53;101336.80;1778604;79;25721;-63
2021/09/01 08:57:37;;;;;;;10.08;4.47;;;;;;;16.63;72.84;101336.23;1750497;79;26460;-65
2021/09/01 09:00:06;;;;;;;6.03;3.25;;;;;;;16.74;72.84;101337.88;1811613;77;25816;-64
2021/09/01 09:02:32;;;;;;;9.00;3.40;;;;;;;16.86;72.73;101345.77;1812511;78;25795;-64
2021/09/01 09:04:59;;;;;;;11.95;3.45;;;;;;;16.80;71.96;101336.16;1815996;78;28412;-64
2021/09/01 09:07:25;;;;;;;8.00;3.60;;;;;;;16.78;72.06;101331.80;1794236;77;25765;-65
2021/09/01 09:09:51;;;;;;;6.60;3.50;;;;;;;16.83;72.45;101331.92;1810782;77;25686;-63
2021/09/01 09:12:21;;;;;;;7.85;3.60;;;;;;;16.94;71.84;101337.20;1789767;79;26437;-64
2021/09/01 09:14:49;;;;;;;16.23;3.83;;;;;;;16.95;71.82;101345.23;1771480;79;25860;-64
2021/09/01 09:17:20;;;;;;;7.65;3.42;;;;;;;17.02;71.84;101348.45;1808362;77;27329;-64
2021/09/01 09:19:52;;;;;;;;;;;;;;;17.09;71.50;101348.48;1812046;77;26192;-64
2021/09/01 09:22:28;;;;;;;7.42;3.83;;;;;;;17.13;71.81;101348.20;1815501;77;26352;-65
2021/09/01 09:25:18;;;;;;;7.80;3.90;;;;;;;17.19;71.27;101354.61;1774089;79;25952;-65
2021/09/01 09:27:53;;;;;;;7.00;3.15;;;;;;;17.27;71.34;101358.70;1743445;80;25718;-65
2021/09/01 09:30:24;;;;;;;7.00;3.62;;;;;;;17.28;70.49;101359.09;1746448;80;27370;-65
2021/09/01 09:33:00;;;;;;;11.40;3.80;;;;;;;17.34;69.82;101362.30;1769668;78;25816;-65
2021/09/01 09:35:45;;;;;;;6.03;3.70;;;;;;;17.40;70.52;101359.23;1768948;78;26348;-65
2021/09/01 09:38:12;;;;;;;11.18;4.08;;;;;;;17.53;70.55;101358.87;1768862;78;26215;-65
2021/09/01 09:40:38;;;;;;;6.28;3.15;;;;;;;17.50;69.46;101369.91;1772356;78;26315;-64
2021/09/01 09:43:18;;;;;;;6.58;2.87;;;;;;;17.44;69.86;101377.05;1769535;78;28108;-65
2021/09/01 09:45:47;;;;;;;8.73;3.47;;;;;;;17.35;69.61;101369.47;1808070;78;25796;-65
2021/09/01 09:48:14;;;;;;;8.20;3.08;;;;;;;17.35;69.61;101368.59;1801400;78;25770;-65
2021/09/01 09:50:49;;;;;;;4.72;2.85;;;;;;;17.33;69.43;101365.98;1807564;77;25814;-65
2021/09/01 09:53:49;;;;;;;4.87;2.87;;;;;;;17.28;68.56;101356.38;1784900;78;25855;-65
2021/09/01 09:56:29;;;;;;;7.20;2.70;;;;;;;17.23;68.48;101359.37;1800886;78;27379;-65
2021/09/01 09:58:57;;;;;;;7.87;2.52;;;;;;;17.33;68.86;101348.36;1805684;78;26210;-63
2021/09/01 10:01:25;;;;;;;7.97;3.15;;;;;;;17.47;68.36;101354.31;1804648;77;25726;-65
2021/09/01 10:03:53;;;;;;;7.42;3.25;;;;;;;17.40;67.18;101358.36;1816909;77;26384;-65
2021/09/01 10:06:20;;;;;;;5.10;2.62;;;;;;;17.37;67.04;101347.70;1804058;77;26479;-66
2021/09/01 10:08:51;;;;;;;11.70;3.70;;;;;;;17.39;66.86;101341.70;1785764;79;27452;-64
2021/09/01 10:11:20;;;;;;;8.55;3.08;;;;;;;17.48;67.54;101350.15;1768676;77;25901;-66
2021/09/01 10:13:49;;;;;;;10.08;2.85;;;;;;;17.67;67.63;101353.13;1781275;78;26363;-63
2021/09/01 10:16:24;;;;;;;8.00;3.15;;;;;;;17.69;65.07;101348.48;1783357;78;26355;-63
2021/09/01 10:19:06;;;;;;;3.45;2.40;;;;;;;17.53;65.40;101348.03;1777321;78;26481;-64
2021/09/01 10:21:40;;;;;;;8.78;3.15;;;;;;;17.42;65.07;101353.72;1778748;78;27446;-63
2021/09/01 10:24:30;;;;;;;9.95;3.08;;;;;;;17.51;65.34;101346.38;1784718;78;25823;-64
2021/09/01 10:27:00;;;;;;;5.40;3.00;;;;;;;17.68;65.52;101361.16;1780832;78;26431;-64
2021/09/01 10:29:58;;;;;;;9.90;2.60;;;;;;;17.78;65.50;101360.11;1779573;78;25907;-63
2021/09/01 10:32:30;;;;;;;7.05;2.77;;;;;;;17.87;64.11;101361.38;1790774;78;25780;-64
2021/09/01 10:35:16;;;;;;;12.93;3.20;;;;;;;17.91;65.02;101357.51;1798359;78;27829;-65
2021/09/01 10:37:53;;;;;;;5.70;2.70;;;;;;;18.00;64.94;101356.45;1785619;78;25868;-65
2021/09/01 10:40:29;;;;;;;5.30;2.98;;;;;;;17.95;64.24;101361.77;1785378;78;25716;-65
2021/09/01 10:42:57;;;;;;;6.92;3.10;;;;;;;18.05;64.03;101359.74;1782023;78;27401;-64
2021/09/01 10:45:30;;;;;;;12.40;3.17;;;;;;;18.08;64.15;101364.10;1802863;78;25902;-64
2021/09/01 10:48:03;;;;;;;5.12;2.83;;;;;;;18.08;63.50;101374.95;1785680;78;27818;-64
2021/09/01 10:50:37;;;;;;;7.53;2.62;;;;;;;18.08;63.50;101374.95;1752915;79;25777;-64
2021/09/01 10:53:19;;;;;;;7.30;3.37;;;;;;;18.04;63.48;101376.11;1783254;78;26196;-63
2021/09/01 10:55:56;;;;;;;5.15;2.62;;;;;;;18.10;63.88;101370.30;1788007;78;26328;-62
2021/09/01 10:58:39;;;;;;;9.08;2.95;;;;;;;18.25;63.53;101359.80;1784117;78;26497;-63
2021/09/01 11:01:13;;;;;;;4.20;2.22;;;;;;;18.41;62.21;101384.11;1760092;78;28175;-65
2021/09/01 11:04:02;;;;;;;10.68;3.02;;;;;;;18.45;62.93;101372.96;1765169;78;25781;-67
2021/09/01 11:06:33;;;;;;;8.43;2.83;;;;;;;18.53;62.00;101375.66;1779350;78;25859;-68
2021/09/01 11:09:13;;;;;;;8.25;3.30;;;;;;;18.47;61.94;101364.23;1786698;78;26655;-64
2021/09/01 11:11:52;;;;;;;6.65;2.95;;;;;;;18.62;62.20;101361.52;1793458;77;25709;-65
2021/09/01 11:14:43;;;;;;;5.30;2.70;;;;;;;18.57;60.96;101363.63;1815323;77;27355;-64
2021/09/01 11:17:19;;;;;;;7.40;2.67;;;;;;;18.57;60.96;101363.63;1803670;77;25819;-63
2021/09/01 11:19:47;;;;;;;5.47;2.72;;;;;;;18.65;61.66;101364.91;1809606;77;25760;-64
2021/09/01 11:22:17;;;;;;;7.80;2.95;;;;;;;18.83;61.77;101365.54;1783204;79;25819;-64
2021/09/01 11:24:47;;;;;;;5.47;2.67;;;;;;;18.90;61.61;101366.00;1790033;78;25815;-64
2021/09/01 11:27:17;;;;;;;6.28;2.70;;;;;;;19.00;61.68;101372.08;1800162;77;27297;-64